Time;durP1;ratioP1;P1;durP2;ratioP2;P2;SDS_P1;SDS_P2;PMS_P1;PMS_P2;Temp;Humidity;BMP_temperature;BMP_pressure;BME280_temperature;BME280_humidity;BME280_pressure;Samples;Min_cycle;Max_cycle;Signal;HPM_P1;HPM_P2
2022/04/18 00:00:37;;;;;;;2.33;1.53;;;;;;;;;;5057983;28;20217;-75
2022/04/18 00:03:05;;;;;;;1.60;1.40;;;;;;;;;;5060724;28;20244;-76
2022/04/18 00:05:33;;;;;;;2.10;1.50;;;;;;;;;;5077986;28;20588;-76
2022/04/18 00:08:02;;;;;;;1.73;1.40;;;;;;;;;;5077480;28;20229;-76
2022/04/18 00:10:30;;;;;;;1.33;1.23;;;;;;;;;;5077814;28;20210;-75
2022/04/18 00:12:58;;;;;;;1.60;1.50;;;;;;;;;;5077671;28;20565;-76
2022/04/18 00:15:26;;;;;;;2.40;1.33;;;;;;;;;;5078084;28;20226;-75
2022/04/18 00:17:56;;;;;;;1.37;1.27;;;;;;;;;;5059405;28;20263;-76
2022/04/18 00:20:24;;;;;;;2.27;1.60;;;;;;;;;;5057730;28;20596;-75
2022/04/18 00:22:52;;;;;;;1.57;1.47;;;;;;;;;;5057475;28;20206;-75
2022/04/18 00:25:20;;;;;;;1.40;1.30;;;;;;;;;;5057833;28;20230;-75
2022/04/18 00:27:49;;;;;;;1.40;1.30;;;;;;;;;;5061909;28;20215;-75
2022/04/18 00:30:17;;;;;;;1.30;1.13;;;;;;;;;;5077806;28;20210;-75
2022/04/18 00:32:45;;;;;;;4.70;1.67;;;;;;;;;;5076799;28;20198;-75
2022/04/18 00:35:14;;;;;;;1.40;1.30;;;;;;;;;;5064167;28;20207;-75
2022/04/18 00:37:42;;;;;;;2.40;1.60;;;;;;;;;;5075705;28;20212;-74
2022/04/18 00:40:11;;;;;;;1.70;1.60;;;;;;;;;;5063369;28;20211;-74
2022/04/18 00:42:42;;;;;;;1.43;1.33;;;;;;;;;;5057307;28;20293;-74
2022/04/18 00:45:10;;;;;;;2.93;1.70;;;;;;;;;;5066837;28;20642;-76
2022/04/18 00:47:38;;;;;;;3.13;1.63;;;;;;;;;;5057523;28;20227;-74
2022/04/18 00:50:07;;;;;;;1.63;1.53;;;;;;;;;;5057449;28;20214;-75
2022/04/18 00:52:38;;;;;;;3.63;1.47;;;;;;;;;;5057263;28;20211;-74
2022/04/18 00:55:07;;;;;;;3.30;1.90;;;;;;;;;;5057298;28;20207;-75
2022/04/18 00:57:35;;;;;;;2.20;1.80;;;;;;;;;;5057382;28;20199;-73
2022/04/18 01:00:03;;;;;;;1.60;1.50;;;;;;;;;;5069871;28;20202;-74
2022/04/18 01:02:32;;;;;;;3.10;1.77;;;;;;;;;;5077165;28;20241;-74
2022/04/18 01:05:00;;;;;;;2.13;1.60;;;;;;;;;;5077380;28;20210;-75
2022/04/18 01:07:28;;;;;;;2.13;2.03;;;;;;;;;;5077096;28;20234;-74
2022/04/18 01:09:57;;;;;;;1.70;1.60;;;;;;;;;;5077231;28;20202;-74
2022/04/18 01:12:25;;;;;;;2.20;1.90;;;;;;;;;;5077544;28;20202;-74
2022/04/18 01:14:53;;;;;;;2.10;1.80;;;;;;;;;;5077031;28;20206;-74
2022/04/18 01:17:21;;;;;;;3.23;1.53;;;;;;;;;;5062872;28;20215;-76
2022/04/18 01:19:49;;;;;;;1.80;1.70;;;;;;;;;;5057011;28;20607;-75
2022/04/18 01:22:19;;;;;;;3.80;1.67;;;;;;;;;;5056901;28;20216;-75
2022/04/18 01:30:27;;;;;;;1.73;1.63;;;;;;;;;;5057231;28;20207;-74
2022/04/18 01:32:55;;;;;;;1.50;1.40;;;;;;;;;;5064730;28;20202;-75
2022/04/18 01:35:23;;;;;;;1.97;1.70;;;;;;;;;;5062887;28;20318;-74
2022/04/18 01:37:52;;;;;;;2.07;1.70;;;;;;;;;;5056878;28;20203;-74
2022/04/18 01:40:20;;;;;;;3.70;2.13;;;;;;;;;;5056987;28;20207;-74
2022/04/18 01:42:48;;;;;;;1.67;1.20;;;;;;;;;;5056964;28;20213;-75
2022/04/18 01:45:16;;;;;;;2.47;1.70;;;;;;;;;;5066492;28;20613;-77
2022/04/18 01:47:44;;;;;;;1.73;1.63;;;;;;;;;;5061992;28;20222;-76
2022/04/18 01:50:12;;;;;;;2.47;1.63;;;;;;;;;;5060551;28;20203;-76
2022/04/18 01:52:40;;;;;;;2.37;2.17;;;;;;;;;;5062013;28;20234;-76
2022/04/18 01:55:10;;;;;;;2.33;2.00;;;;;;;;;;5059629;28;20207;-76
2022/04/18 01:57:38;;;;;;;4.20;1.97;;;;;;;;;;5059489;28;20233;-76
2022/04/18 02:00:07;;;;;;;1.70;1.60;;;;;;;;;;5058043;28;20632;-77
2022/04/18 02:02:34;;;;;;;2.00;1.87;;;;;;;;;;5065906;28;20325;-75
2022/04/18 02:05:02;;;;;;;1.63;1.53;;;;;;;;;;5067570;28;20203;-76
2022/04/18 02:07:31;;;;;;;1.77;1.63;;;;;;;;;;5062063;28;20219;-76
2022/04/18 02:09:59;;;;;;;1.33;1.23;;;;;;;;;;5061270;28;20203;-76
2022/04/18 02:12:28;;;;;;;2.17;1.80;;;;;;;;;;5062889;28;20750;-76
2022/04/18 02:14:56;;;;;;;2.17;1.83;;;;;;;;;;5059677;28;20199;-76
2022/04/18 02:17:24;;;;;;;1.97;1.80;;;;;;;;;;5065352;28;20225;-74
2022/04/18 02:19:52;;;;;;;2.20;1.70;;;;;;;;;;5071172;28;20538;-74
2022/04/18 02:22:22;;;;;;;1.97;1.50;;;;;;;;;;5064863;28;20212;-73
2022/04/18 02:24:50;;;;;;;1.60;1.50;;;;;;;;;;5062498;28;20654;-76
2022/04/18 02:27:18;;;;;;;1.97;1.70;;;;;;;;;;5063333;28;20670;-75
2022/04/18 02:29:48;;;;;;;3.57;1.43;;;;;;;;;;5060526;28;20321;-76
2022/04/18 02:35:01;;;;;;;2.60;2.40;;;;;;;;;;5066673;28;20205;-76
2022/04/18 02:37:29;;;;;;;2.40;2.20;;;;;;;;;;5064431;28;20198;-75
2022/04/18 02:39:59;;;;;;;4.00;3.17;;;;;;;;;;5060786;28;20203;-76
2022/04/18 02:42:27;;;;;;;4.77;3.07;;;;;;;;;;5073011;28;20225;-76
2022/04/18 02:44:56;;;;;;;6.03;3.20;;;;;;;;;;5069203;28;20203;-76
2022/04/18 02:47:25;;;;;;;6.53;3.67;;;;;;;;;;5066241;28;20206;-76
2022/04/18 02:49:53;;;;;;;5.37;3.70;;;;;;;;;;5078065;28;20285;-76
2022/04/18 02:52:21;;;;;;;5.17;3.43;;;;;;;;;;5079370;28;20210;-76
2022/04/18 02:54:49;;;;;;;3.80;3.33;;;;;;;;;;5079272;28;20674;-76
2022/04/18 02:57:17;;;;;;;4.10;3.67;;;;;;;;;;5079010;28;20222;-76
2022/04/18 02:59:45;;;;;;;5.70;3.70;;;;;;;;;;5079102;28;20206;-76
2022/04/18 03:02:14;;;;;;;4.50;3.80;;;;;;;;;;5079134;28;20234;-76
2022/04/18 03:04:42;;;;;;;6.07;3.63;;;;;;;;;;5079238;28;20259;-76
2022/04/18 03:07:10;;;;;;;6.37;3.57;;;;;;;;;;5079274;28;20229;-76
2022/04/18 03:09:38;;;;;;;8.90;3.60;;;;;;;;;;5079134;28;20222;-76
2022/04/18 03:12:07;;;;;;;4.23;3.53;;;;;;;;;;5079503;28;20206;-76
2022/04/18 03:14:35;;;;;;;4.60;4.20;;;;;;;;;;5078897;28;20210;-76
2022/04/18 03:17:03;;;;;;;5.97;3.60;;;;;;;;;;5067286;28;20226;-76
2022/04/18 03:19:33;;;;;;;4.50;3.37;;;;;;;;;;5059042;28;20213;-76
2022/04/18 03:22:01;;;;;;;5.10;3.50;;;;;;;;;;5058727;28;20600;-76
2022/04/18 03:24:29;;;;;;;5.27;3.53;;;;;;;;;;5058793;28;20221;-76
2022/04/18 03:26:57;;;;;;;4.20;3.27;;;;;;;;;;5061899;28;20221;-76
2022/04/18 03:29:25;;;;;;;4.43;3.30;;;;;;;;;;5078658;28;20225;-76
2022/04/18 03:31:54;;;;;;;4.33;3.10;;;;;;;;;;5078607;28;20217;-76
2022/04/18 03:34:22;;;;;;;8.30;3.67;;;;;;;;;;5071538;28;20218;-76
2022/04/18 03:39:53;;;;;;;3.87;3.20;;;;;;;;;;5078579;28;20209;-76
2022/04/18 03:42:29;;;;;;;4.80;3.40;;;;;;;;;;5078750;28;20569;-76
2022/04/18 03:44:59;;;;;;;3.70;3.37;;;;;;;;;;5072951;28;20233;-77
2022/04/18 03:47:27;;;;;;;5.27;3.47;;;;;;;;;;5059173;28;20213;-77
2022/04/18 03:49:56;;;;;;;3.90;3.50;;;;;;;;;;5058940;28;20227;-77
2022/04/18 03:52:25;;;;;;;6.03;3.60;;;;;;;;;;5060489;28;20202;-76
2022/04/18 03:54:54;;;;;;;5.00;3.90;;;;;;;;;;5069904;28;20290;-76
2022/04/18 03:57:21;;;;;;;4.47;3.60;;;;;;;;;;5060239;28;20313;-76
2022/04/18 03:59:49;;;;;;;3.80;3.40;;;;;;;;;;5058512;28;20723;-76
2022/04/18 04:02:17;;;;;;;4.67;3.57;;;;;;;;;;5065439;28;20730;-76
2022/04/18 04:04:45;;;;;;;6.10;3.43;;;;;;;;;;5078319;28;20210;-76
2022/04/18 04:07:13;;;;;;;5.00;3.40;;;;;;;;;;5077873;28;20222;-76
2022/04/18 04:09:43;;;;;;;3.70;2.93;;;;;;;;;;5077717;28;20723;-77
2022/04/18 04:12:11;;;;;;;3.13;2.83;;;;;;;;;;5077929;28;20205;-77
2022/04/18 04:14:39;;;;;;;2.93;2.73;;;;;;;;;;5077704;28;20210;-77
2022/04/18 04:17:07;;;;;;;3.07;2.77;;;;;;;;;;5065779;28;20219;-76
2022/04/18 04:19:34;;;;;;;2.93;2.63;;;;;;;;;;5057521;28;20585;-76
2022/04/18 04:22:02;;;;;;;2.17;1.97;;;;;;;;;;5057798;28;20320;-76
2022/04/18 04:24:30;;;;;;;2.60;2.40;;;;;;;;;;5057753;28;20219;-76
2022/04/18 04:27:00;;;;;;;4.40;2.33;;;;;;;;;;5058861;28;20221;-75
2022/04/18 04:29:28;;;;;;;6.03;2.60;;;;;;;;;;5057966;28;20227;-76
2022/04/18 04:31:56;;;;;;;2.33;2.00;;;;;;;;;;5057615;28;20207;-77
2022/04/18 04:34:24;;;;;;;6.10;2.73;;;;;;;;;;5064531;28;20234;-76
2022/04/18 04:36:52;;;;;;;3.90;3.60;;;;;;;;;;5057323;28;20266;-72
2022/04/18 04:39:20;;;;;;;4.20;3.13;;;;;;;;;;5057730;28;20289;-74
2022/04/18 04:41:48;;;;;;;4.10;3.13;;;;;;;;;;5057667;28;20710;-71
2022/04/18 04:44:17;;;;;;;4.33;3.50;;;;;;;;;;5060161;28;20217;-70
2022/04/18 04:46:45;;;;;;;4.73;3.77;;;;;;;;;;5057415;28;20223;-70
2022/04/18 04:49:13;;;;;;;3.53;3.13;;;;;;;;;;5057421;28;20227;-72
2022/04/18 04:51:42;;;;;;;3.67;3.37;;;;;;;;;;5056962;28;20579;-71
2022/04/18 04:54:10;;;;;;;5.30;4.10;;;;;;;;;;5057356;28;20213;-71
2022/04/18 04:56:38;;;;;;;5.23;3.90;;;;;;;;;;5066484;28;20286;-71
2022/04/18 04:59:07;;;;;;;4.73;3.80;;;;;;;;;;5065768;28;20689;-71
2022/04/18 05:01:36;;;;;;;6.57;4.30;;;;;;;;;;5067181;28;20226;-72
2022/04/18 05:04:04;;;;;;;6.53;4.07;;;;;;;;;;5067823;28;20285;-71
2022/04/18 05:06:32;;;;;;;6.03;4.60;;;;;;;;;;5065339;28;20214;-71
2022/04/18 05:09:00;;;;;;;9.70;4.90;;;;;;;;;;5067054;28;20218;-71
2022/04/18 05:11:28;;;;;;;6.67;5.67;;;;;;;;;;5066347;28;20683;-71
2022/04/18 05:13:56;;;;;;;6.77;5.27;;;;;;;;;;5069505;28;20210;-72
2022/04/18 05:16:24;;;;;;;6.30;4.70;;;;;;;;;;5064783;28;20583;-76
2022/04/18 05:18:54;;;;;;;6.00;5.43;;;;;;;;;;5066555;28;20277;-76
2022/04/18 05:21:22;;;;;;;6.33;5.43;;;;;;;;;;5066950;28;20208;-76
2022/04/18 05:23:50;;;;;;;6.10;4.93;;;;;;;;;;5069186;28;20285;-76
2022/04/18 05:26:18;;;;;;;6.73;4.50;;;;;;;;;;5066957;28;20225;-76
2022/04/18 05:28:46;;;;;;;9.63;5.07;;;;;;;;;;5064411;28;20201;-78
2022/04/18 05:31:17;;;;;;;6.73;4.73;;;;;;;;;;5066294;28;20207;-78
2022/04/18 05:33:45;;;;;;;12.77;6.00;;;;;;;;;;5065233;28;20241;-78
2022/04/18 05:36:14;;;;;;;9.30;5.37;;;;;;;;;;5069207;28;20228;-78
2022/04/18 05:38:42;;;;;;;6.20;5.00;;;;;;;;;;5067309;28;20362;-78
2022/04/18 05:41:10;;;;;;;7.73;5.13;;;;;;;;;;5069822;28;20204;-78
2022/04/18 05:43:38;;;;;;;10.60;5.90;;;;;;;;;;5068808;28;20224;-79
2022/04/18 05:46:06;;;;;;;6.10;4.60;;;;;;;;;;5071177;28;20221;-78
2022/04/18 05:48:34;;;;;;;6.37;4.00;;;;;;;;;;5072182;28;20651;-78
2022/04/18 05:51:02;;;;;;;5.80;3.70;;;;;;;;;;5071976;28;20221;-79
2022/04/18 05:53:31;;;;;;;6.10;3.87;;;;;;;;;;5071229;28;20203;-78
2022/04/18 05:55:59;;;;;;;5.90;4.47;;;;;;;;;;5075881;28;20331;-78
2022/04/18 05:58:27;;;;;;;5.27;4.70;;;;;;;;;;5068786;28;20207;-78
2022/04/18 06:00:55;;;;;;;4.30;3.87;;;;;;;;;;5072487;28;20225;-79
2022/04/18 06:03:23;;;;;;;5.80;4.37;;;;;;;;;;5069185;28;20206;-78
2022/04/18 06:05:51;;;;;;;4.40;4.00;;;;;;;;;;5072264;28;20245;-76
2022/04/18 06:08:19;;;;;;;5.97;4.67;;;;;;;;;;5070315;28;20229;-77
2022/04/18 06:10:49;;;;;;;4.90;4.47;;;;;;;;;;5073698;28;20355;-78
2022/04/18 06:13:19;;;;;;;4.37;3.93;;;;;;;;;;5074593;28;20670;-78
2022/04/18 06:15:47;;;;;;;3.40;2.73;;;;;;;;;;5079142;28;20709;-77
2022/04/18 06:18:15;;;;;;;2.90;2.70;;;;;;;;;;5059834;28;20210;-77
2022/04/18 06:20:43;;;;;;;2.77;2.57;;;;;;;;;;5060076;28;20225;-78
2022/04/18 06:23:11;;;;;;;1.87;1.77;;;;;;;;;;5059641;28;20568;-77
2022/04/18 06:25:39;;;;;;;1.90;1.77;;;;;;;;;;5060317;28;20237;-77
2022/04/18 06:28:08;;;;;;;1.80;1.70;;;;;;;;;;5066495;28;20691;-77
2022/04/18 06:30:37;;;;;;;2.87;1.97;;;;;;;;;;5075472;28;20309;-78
2022/04/18 06:33:05;;;;;;;1.67;1.57;;;;;;;;;;5069400;28;20285;-77
2022/04/18 06:35:33;;;;;;;1.80;1.70;;;;;;;;;;5071619;28;20728;-74
2022/04/18 06:38:01;;;;;;;1.90;1.70;;;;;;;;;;5070894;28;20738;-74
2022/04/18 06:40:29;;;;;;;1.37;1.27;;;;;;;;;;5073037;28;20279;-73
2022/04/18 06:42:57;;;;;;;1.63;1.53;;;;;;;;;;5070963;28;20241;-74
2022/04/18 06:45:28;;;;;;;3.00;1.50;;;;;;;;;;5071307;28;20221;-72
2022/04/18 06:47:56;;;;;;;3.20;1.63;;;;;;;;;;5070924;28;20638;-73
2022/04/18 06:50:24;;;;;;;1.60;1.50;;;;;;;;;;5069758;28;20585;-72
2022/04/18 06:52:54;;;;;;;3.23;1.87;;;;;;;;;;5069221;28;20214;-74
2022/04/18 06:55:22;;;;;;;1.70;1.60;;;;;;;;;;5070768;28;20237;-72
2022/04/18 06:57:50;;;;;;;1.83;1.70;;;;;;;;;;5068142;28;20563;-73
2022/04/18 07:00:18;;;;;;;3.20;1.70;;;;;;;;;;5069552;28;20234;-73
2022/04/18 07:02:50;;;;;;;2.13;1.93;;;;;;;;;;5068050;28;20228;-72
2022/04/18 07:05:18;;;;;;;3.93;1.30;;;;;;;;;;5068266;28;20222;-74
2022/04/18 07:07:46;;;;;;;4.80;1.67;;;;;;;;;;5064917;28;20217;-74
2022/04/18 07:10:15;;;;;;;1.63;1.53;;;;;;;;;;5070829;28;20249;-72
2022/04/18 07:12:43;;;;;;;1.63;1.53;;;;;;;;;;5072308;28;20741;-74
2022/04/18 07:15:11;;;;;;;4.40;1.47;;;;;;;;;;5068896;28;20203;-74
2022/04/18 07:17:39;;;;;;;1.60;1.50;;;;;;;;;;5069632;28;20328;-76
2022/04/18 07:20:09;;;;;;;1.73;1.63;;;;;;;;;;5071156;28;20213;-77
2022/04/18 07:22:38;;;;;;;2.33;1.57;;;;;;;;;;5070149;28;20266;-73
2022/04/18 07:25:07;;;;;;;2.43;1.50;;;;;;;;;;5065084;28;20576;-76
2022/04/18 07:27:35;;;;;;;1.27;1.10;;;;;;;;;;5072125;28;20203;-76
2022/04/18 07:30:03;;;;;;;1.77;1.57;;;;;;;;;;5069590;28;20606;-77
2022/04/18 07:32:31;;;;;;;3.10;1.47;;;;;;;;;;5069839;28;20194;-77
2022/04/18 07:35:01;;;;;;;1.20;1.10;;;;;;;;;;5069793;28;20198;-77
2022/04/18 07:37:31;;;;;;;1.93;1.33;;;;;;;;;;5068149;28;20210;-78
2022/04/18 07:39:59;;;;;;;1.43;1.33;;;;;;;;;;5068496;28;20199;-77
2022/04/18 07:42:27;;;;;;;2.33;1.33;;;;;;;;;;5067507;28;20655;-78
2022/04/18 07:44:55;;;;;;;1.80;1.70;;;;;;;;;;5068920;28;20609;-78
2022/04/18 07:47:23;;;;;;;1.60;1.50;;;;;;;;;;5070442;28;20588;-74
2022/04/18 07:49:51;;;;;;;1.60;1.40;;;;;;;;;;5073757;28;20202;-79
2022/04/18 07:52:20;;;;;;;1.20;1.20;;;;;;;;;;5071750;28;20208;-79
2022/04/18 07:54:49;;;;;;;1.40;1.20;;;;;;;;;;5061338;28;20235;-81
2022/04/18 07:57:17;;;;;;;2.00;1.53;;;;;;;;;;5067839;28;20578;-79
2022/04/18 07:59:45;;;;;;;1.47;1.37;;;;;;;;;;5071340;28;20672;-81
2022/04/18 08:02:13;;;;;;;2.23;1.70;;;;;;;;;;5069654;28;20232;-79
2022/04/18 08:04:41;;;;;;;1.90;1.77;;;;;;;;;;5066775;28;20206;-80
2022/04/18 08:07:10;;;;;;;3.77;1.17;;;;;;;;;;5069869;28;20581;-79
2022/04/18 08:09:38;;;;;;;1.40;1.30;;;;;;;;;;5066833;28;20680;-80
2022/04/18 08:12:11;;;;;;;2.23;1.83;;;;;;;;;;5072162;28;20232;-79
2022/04/18 08:14:40;;;;;;;1.50;1.40;;;;;;;;;;5070961;28;20662;-80
2022/04/18 08:17:08;;;;;;;2.60;1.33;;;;;;;;;;5064073;28;20706;-79
2022/04/18 08:19:39;;;;;;;1.60;1.47;;;;;;;;;;5065353;28;20214;-81
2022/04/18 08:22:07;;;;;;;1.80;1.70;;;;;;;;;;5063219;28;20562;-79
2022/04/18 08:24:35;;;;;;;3.13;1.90;;;;;;;;;;5065460;28;20209;-81
2022/04/18 08:27:03;;;;;;;1.77;1.10;;;;;;;;;;5068269;28;20226;-79
2022/04/18 08:29:32;;;;;;;2.10;1.37;;;;;;;;;;5069633;28;20246;-79
2022/04/18 08:32:02;;;;;;;2.37;1.93;;;;;;;;;;5063170;28;20226;-79
2022/04/18 08:34:30;;;;;;;2.17;1.80;;;;;;;;;;5064019;28;20201;-78
2022/04/18 08:36:58;;;;;;;2.30;2.10;;;;;;;;;;5067635;28;20225;-79
2022/04/18 08:39:27;;;;;;;2.93;1.53;;;;;;;;;;5068580;28;20282;-78
2022/04/18 08:41:57;;;;;;;1.80;1.70;;;;;;;;;;5069072;28;20206;-78
2022/04/18 08:44:26;;;;;;;1.60;1.50;;;;;;;;;;5068234;28;20209;-77
2022/04/18 08:46:56;;;;;;;2.30;2.10;;;;;;;;;;5066270;28;20313;-68
2022/04/18 08:54:57;;;;;;;3.87;1.57;;;;;;;;;;5067337;28;20201;-75
2022/04/18 08:57:25;;;;;;;1.80;1.70;;;;;;;;;;5068729;28;20198;-74
2022/04/18 08:59:53;;;;;;;1.80;1.70;;;;;;;;;;5066855;28;20198;-76
2022/04/18 09:02:23;;;;;;;1.70;1.47;;;;;;;;;;5070522;28;20229;-76
2022/04/18 09:04:51;;;;;;;3.03;1.63;;;;;;;;;;5071217;28;20202;-76
2022/04/18 09:07:19;;;;;;;2.80;1.67;;;;;;;;;;5068325;28;20313;-77
2022/04/18 09:09:48;;;;;;;1.93;1.73;;;;;;;;;;5072159;28;20206;-77
2022/04/18 09:12:19;;;;;;;2.77;2.00;;;;;;;;;;5063463;28;20219;-77
2022/04/18 09:14:54;;;;;;;2.40;1.40;;;;;;;;;;5063314;28;20285;-75
2022/04/18 09:17:31;;;;;;;1.73;1.63;;;;;;;;;;5065468;28;20266;-76
2022/04/18 09:20:06;;;;;;;1.73;1.50;;;;;;;;;;5070365;28;20224;-77
2022/04/18 09:22:40;;;;;;;1.70;1.60;;;;;;;;;;5067727;28;20261;-77
2022/04/18 09:25:13;;;;;;;3.63;1.80;;;;;;;;;;5073805;28;20193;-75
2022/04/18 09:27:41;;;;;;;1.90;1.70;;;;;;;;;;5071615;28;20194;-77
2022/04/18 09:30:10;;;;;;;2.97;1.67;;;;;;;;;;5071397;28;20205;-76
2022/04/18 09:32:40;;;;;;;3.07;1.67;;;;;;;;;;5074627;28;20225;-75
2022/04/18 09:35:09;;;;;;;4.03;2.07;;;;;;;;;;5066719;28;20225;-75
2022/04/18 09:37:37;;;;;;;2.33;1.60;;;;;;;;;;5077657;28;20233;-75
2022/04/18 09:40:05;;;;;;;3.57;1.93;;;;;;;;;;5079111;28;20221;-77
2022/04/18 09:42:33;;;;;;;2.43;2.20;;;;;;;;;;5072709;28;20203;-77
2022/04/18 09:45:01;;;;;;;2.07;1.70;;;;;;;;;;5071034;28;20212;-78
2022/04/18 09:47:34;;;;;;;2.70;2.43;;;;;;;;;;5066792;28;20293;-77
2022/04/18 09:50:58;;;;;;;2.47;1.90;;;;;;;;;;5063815;28;20580;-78
2022/04/18 09:53:05;;;;;;;9.70;2.00;;;;;;;;;;5078308;28;20251;-76
2022/04/18 09:55:33;;;;;;;2.47;2.00;;;;;;;;;;5069187;28;20697;-77
2022/04/18 09:58:04;;;;;;;1.93;1.70;;;;;;;;;;5067407;28;20255;-75
2022/04/18 10:00:52;;;;;;;3.43;2.00;;;;;;;;;;5072062;28;20230;-76
2022/04/18 10:03:20;;;;;;;2.60;1.77;;;;;;;;;;5069218;28;20207;-78
2022/04/18 10:05:50;;;;;;;1.80;1.67;;;;;;;;;;5063766;28;20227;-77
2022/04/18 10:08:19;;;;;;;1.77;1.67;;;;;;;;;;5063532;28;20213;-77
2022/04/18 10:10:48;;;;;;;2.53;2.33;;;;;;;;;;5072481;28;20221;-77
2022/04/18 10:13:16;;;;;;;2.70;1.87;;;;;;;;;;5078102;28;20724;-78
2022/04/18 10:15:44;;;;;;;2.27;2.07;;;;;;;;;;5075349;28;20237;-76
2022/04/18 10:18:14;;;;;;;2.27;2.07;;;;;;;;;;5066467;28;20564;-76
2022/04/18 10:20:48;;;;;;;2.40;2.07;;;;;;;;;;5064254;28;20285;-75
2022/04/18 10:23:31;;;;;;;1.60;1.50;;;;;;;;;;5063997;28;20217;-76
2022/04/18 10:26:26;;;;;;;1.97;1.87;;;;;;;;;;5072779;28;20218;-76
2022/04/18 10:28:55;;;;;;;1.90;1.80;;;;;;;;;;5069408;28;20584;-77
2022/04/18 10:31:25;;;;;;;2.67;2.03;;;;;;;;;;5070760;28;20225;-76
2022/04/18 10:33:54;;;;;;;2.10;1.90;;;;;;;;;;5064490;28;20214;-77
2022/04/18 10:36:25;;;;;;;1.77;1.67;;;;;;;;;;5071796;28;20770;-76
2022/04/18 10:38:54;;;;;;;2.27;2.07;;;;;;;;;;5073859;28;20198;-75
2022/04/18 10:41:37;;;;;;;2.43;2.30;;;;;;;;;;5068929;28;20212;-76
2022/04/18 10:44:08;;;;;;;1.67;1.57;;;;;;;;;;5071840;28;20210;-76
2022/04/18 10:46:37;;;;;;;2.07;1.80;;;;;;;;;;5064300;28;20230;-78
2022/04/18 10:49:06;;;;;;;3.27;2.60;;;;;;;;;;5065894;28;20203;-76
2022/04/18 10:51:37;;;;;;;3.73;2.13;;;;;;;;;;5064877;28;20215;-78
2022/04/18 10:54:07;;;;;;;2.63;1.70;;;;;;;;;;5072348;28;20229;-78
2022/04/18 10:57:02;;;;;;;3.10;1.80;;;;;;;;;;5073553;28;20305;-77
2022/04/18 10:59:32;;;;;;;1.63;1.50;;;;;;;;;;5047263;28;20297;-78
2022/04/18 11:02:01;;;;;;;8.53;1.70;;;;;;;;;;5063521;28;20227;-78
2022/04/18 11:04:30;;;;;;;2.30;1.80;;;;;;;;;;5069668;28;20207;-78
2022/04/18 11:06:59;;;;;;;2.23;1.70;;;;;;;;;;5070505;28;20285;-76
2022/04/18 11:09:28;;;;;;;2.83;1.80;;;;;;;;;;5066238;28;20213;-78
2022/04/18 11:12:01;;;;;;;2.17;1.50;;;;;;;;;;5073258;28;20236;-78
2022/04/18 11:14:29;;;;;;;2.60;1.33;;;;;;;;;;5069407;28;20203;-76
2022/04/18 11:17:00;;;;;;;1.30;1.10;;;;;;;;;;5075101;28;20214;-76
2022/04/18 11:19:28;;;;;;;1.60;1.50;;;;;;;;;;5072125;28;20233;-76
2022/04/18 11:22:04;;;;;;;1.40;1.30;;;;;;;;;;5074884;28;20204;-79
2022/04/18 11:24:33;;;;;;;1.90;1.27;;;;;;;;;;5067350;28;20289;-79
2022/04/18 11:27:01;;;;;;;2.23;1.20;;;;;;;;;;5078064;28;20254;-77
2022/04/18 11:29:30;;;;;;;1.40;1.20;;;;;;;;;;5074222;28;20262;-79
2022/04/18 11:32:00;;;;;;;1.60;1.50;;;;;;;;;;5067612;28;20215;-79
2022/04/18 11:34:28;;;;;;;15.43;10.80;;;;;;;;;;5069752;28;20202;-76
2022/04/18 11:36:57;;;;;;;1.33;1.23;;;;;;;;;;5065710;28;20218;-77
2022/04/18 11:39:25;;;;;;;1.97;1.80;;;;;;;;;;5067656;28;20608;-77
2022/04/18 11:42:02;;;;;;;1.97;1.87;;;;;;;;;;5068337;28;20201;-78
2022/04/18 11:44:37;;;;;;;1.80;1.60;;;;;;;;;;5072200;28;20208;-77
2022/04/18 11:47:09;;;;;;;2.00;1.40;;;;;;;;;;5067661;28;20332;-77
2022/04/18 11:49:37;;;;;;;1.20;1.10;;;;;;;;;;5069895;28;20297;-78
2022/04/18 11:52:06;;;;;;;1.10;1.10;;;;;;;;;;5075157;28;20240;-77
2022/04/18 11:54:34;;;;;;;2.20;1.40;;;;;;;;;;5069208;28;20207;-77
2022/04/18 11:57:03;;;;;;;1.10;1.00;;;;;;;;;;5068567;28;20222;-76
2022/04/18 11:59:32;;;;;;;2.03;1.30;;;;;;;;;;5072854;28;20208;-77
2022/04/18 12:07:35;;;;;;;2.77;2.30;;;;;;;;;;5066851;28;20199;-75
2022/04/18 12:10:19;;;;;;;7.67;2.90;;;;;;;;;;5066639;28;20202;-75
2022/04/18 12:12:47;;;;;;;4.30;1.80;;;;;;;;;;5062692;28;20309;-77
2022/04/18 12:15:15;;;;;;;1.53;1.40;;;;;;;;;;5066865;28;20217;-77
2022/04/18 12:17:43;;;;;;;2.20;2.00;;;;;;;;;;5064286;28;20284;-78
2022/04/18 12:20:22;;;;;;;2.73;1.40;;;;;;;;;;5064559;28;20294;-78
2022/04/18 12:22:52;;;;;;;1.40;1.30;;;;;;;;;;5065775;28;20699;-79
2022/04/18 12:25:21;;;;;;;1.40;1.30;;;;;;;;;;5070196;28;20232;-78
2022/04/18 12:27:49;;;;;;;0.97;0.97;;;;;;;;;;5067882;28;20266;-78
2022/04/18 12:30:18;;;;;;;1.47;1.37;;;;;;;;;;5066193;28;20207;-78
2022/04/18 12:32:48;;;;;;;2.27;1.30;;;;;;;;;;5066793;28;20268;-79
2022/04/18 12:35:17;;;;;;;2.70;1.47;;;;;;;;;;5063920;28;20203;-77
2022/04/18 12:37:52;;;;;;;1.37;1.00;;;;;;;;;;5065099;28;20211;-76
2022/04/18 12:40:21;;;;;;;1.83;1.23;;;;;;;;;;5067842;28;20198;-77
2022/04/18 12:42:50;;;;;;;1.70;1.60;;;;;;;;;;5066484;28;20203;-79
2022/04/18 12:45:18;;;;;;;1.40;1.30;;;;;;;;;;5066752;28;20204;-79
2022/04/18 12:47:46;;;;;;;3.10;1.40;;;;;;;;;;5065951;28;20203;-78
2022/04/18 12:50:15;;;;;;;3.87;1.40;;;;;;;;;;5068308;28;20212;-78
2022/04/18 12:52:49;;;;;;;2.47;1.80;;;;;;;;;;5065505;28;20198;-77
2022/04/18 12:55:25;;;;;;;2.03;1.30;;;;;;;;;;5063819;28;20203;-78
2022/04/18 12:57:53;;;;;;;1.17;1.07;;;;;;;;;;5060064;28;20260;-80
2022/04/18 13:00:21;;;;;;;3.43;1.27;;;;;;;;;;5066770;28;20202;-77
2022/04/18 13:02:59;;;;;;;2.13;1.50;;;;;;;;;;5055606;28;20250;-77
2022/04/18 13:05:28;;;;;;;1.23;1.10;;;;;;;;;;5070798;28;20221;-77
2022/04/18 13:08:03;;;;;;;1.90;1.63;;;;;;;;;;5069877;28;20224;-77
2022/04/18 13:10:33;;;;;;;1.97;1.43;;;;;;;;;;5066777;28;20203;-78
2022/04/18 13:13:05;;;;;;;1.33;1.23;;;;;;;;;;5063505;28;20222;-80
2022/04/18 13:15:34;;;;;;;2.50;1.20;;;;;;;;;;5072316;28;20232;-80
2022/04/18 13:18:04;;;;;;;1.67;1.40;;;;;;;;;;5070409;28;20198;-79
2022/04/18 13:20:32;;;;;;;1.77;1.20;;;;;;;;;;5070994;28;20554;-80
2022/04/18 13:23:01;;;;;;;1.30;1.20;;;;;;;;;;5069621;28;20212;-80
2022/04/18 13:25:29;;;;;;;2.03;1.27;;;;;;;;;;5073746;28;20226;-78
2022/04/18 13:27:59;;;;;;;1.40;1.30;;;;;;;;;;5061740;28;20203;-82
2022/04/18 13:30:27;;;;;;;1.57;1.43;;;;;;;;;;5065540;28;20213;-81
2022/04/18 13:32:55;;;;;;;1.37;1.27;;;;;;;;;;5073529;28;20198;-81
2022/04/18 13:35:23;;;;;;;1.47;1.37;;;;;;;;;;5069112;28;20281;-81
2022/04/18 13:37:51;;;;;;;1.43;1.33;;;;;;;;;;5069652;28;20198;-82
2022/04/18 13:40:20;;;;;;;2.23;1.50;;;;;;;;;;5070453;28;20217;-81
2022/04/18 13:42:48;;;;;;;2.13;1.40;;;;;;;;;;5071308;28;20274;-82
2022/04/18 13:45:18;;;;;;;4.77;1.37;;;;;;;;;;5068285;28;20207;-81
2022/04/18 13:47:46;;;;;;;1.43;1.33;;;;;;;;;;5060756;28;20233;-82
2022/04/18 13:50:14;;;;;;;1.47;1.33;;;;;;;;;;5070895;28;20207;-81
2022/04/18 13:52:42;;;;;;;2.13;1.13;;;;;;;;;;5059885;28;20205;-81
2022/04/18 13:55:13;;;;;;;1.47;1.37;;;;;;;;;;5070928;28;20581;-81
2022/04/18 13:57:41;;;;;;;2.43;1.00;;;;;;;;;;5061903;28;20214;-82
2022/04/18 14:00:09;;;;;;;0.90;0.90;;;;;;;;;;5064219;28;20733;-82
2022/04/18 14:02:39;;;;;;;1.10;1.10;;;;;;;;;;5073375;28;20242;-82
2022/04/18 14:05:07;;;;;;;1.47;1.37;;;;;;;;;;5071387;28;20226;-81
2022/04/18 14:07:38;;;;;;;2.10;1.17;;;;;;;;;;5070274;28;20235;-83
2022/04/18 14:10:07;;;;;;;0.87;0.87;;;;;;;;;;5069550;28;20281;-81
2022/04/18 14:12:40;;;;;;;3.07;0.93;;;;;;;;;;5069499;28;20202;-69
2022/04/18 14:20:41;;;;;;;1.67;1.07;;;;;;;;;;5069756;28;20659;-68
2022/04/18 14:23:09;;;;;;;3.87;1.07;;;;;;;;;;5076500;28;20207;-69
2022/04/18 14:25:37;;;;;;;1.37;1.20;;;;;;;;;;5067269;28;20585;-69
2022/04/18 14:28:05;;;;;;;1.30;0.90;;;;;;;;;;5075683;28;20581;-67
2022/04/18 14:30:34;;;;;;;1.10;1.10;;;;;;;;;;5067762;28;20226;-69
2022/04/18 14:33:04;;;;;;;1.53;1.20;;;;;;;;;;5064754;28;20240;-68
2022/04/18 14:35:32;;;;;;;1.03;1.03;;;;;;;;;;5070906;28;20226;-69
2022/04/18 14:38:00;;;;;;;0.90;0.90;;;;;;;;;;5064749;28;20210;-69
2022/04/18 14:40:28;;;;;;;3.03;1.00;;;;;;;;;;5064302;28;20202;-69
2022/04/18 14:42:56;;;;;;;3.63;1.20;;;;;;;;;;5071909;28;20659;-69
2022/04/18 14:45:24;;;;;;;6.87;1.00;;;;;;;;;;5073071;28;20237;-69
2022/04/18 14:47:52;;;;;;;2.70;1.00;;;;;;;;;;5069819;28;20670;-69
2022/04/18 14:50:22;;;;;;;1.30;1.07;;;;;;;;;;5073659;28;20552;-69
2022/04/18 14:52:50;;;;;;;1.50;1.40;;;;;;;;;;5063527;28;20207;-69
2022/04/18 14:55:18;;;;;;;1.53;1.30;;;;;;;;;;5065897;28;20261;-69
2022/04/18 14:57:52;;;;;;;1.10;1.10;;;;;;;;;;5072107;28;20264;-68
2022/04/18 15:00:20;;;;;;;1.70;1.13;;;;;;;;;;5070492;28;20269;-69
2022/04/18 15:02:48;;;;;;;1.03;1.03;;;;;;;;;;5067859;28;20314;-69
2022/04/18 15:05:16;;;;;;;1.70;1.30;;;;;;;;;;5072593;28;20237;-68
2022/04/18 15:07:45;;;;;;;2.10;1.37;;;;;;;;;;5066502;28;20285;-68
2022/04/18 15:10:13;;;;;;;1.00;1.00;;;;;;;;;;5065846;28;20690;-70
2022/04/18 15:12:41;;;;;;;1.53;1.40;;;;;;;;;;5072042;28;20237;-69
2022/04/18 15:15:09;;;;;;;1.30;1.20;;;;;;;;;;5068965;28;20301;-69
2022/04/18 15:17:37;;;;;;;2.20;1.13;;;;;;;;;;5069632;28;20202;-68
2022/04/18 15:20:06;;;;;;;1.53;1.13;;;;;;;;;;5069512;28;20284;-66
2022/04/18 15:22:34;;;;;;;1.97;1.30;;;;;;;;;;5066616;28;20198;-68